Time;durP1;ratioP1;P1;durP2;ratioP2;P2;SDS_P1;SDS_P2;PMS_P1;PMS_P2;Temp;Humidity;BMP_temperature;BMP_pressure;BME280_temperature;BME280_humidity;BME280_pressure;Samples;Min_cycle;Max_cycle;Signal;HPM_P1;HPM_P2
2023/05/31 00:00:17;;;;;;;1.08;0.80;;;15.60;69.70;;;;;;5031849;28;20057;-63
2023/05/31 00:02:43;;;;;;;0.77;0.70;;;15.50;69.10;;;;;;5030763;28;20057;-66
2023/05/31 00:05:09;;;;;;;0.70;0.70;;;15.50;69.20;;;;;;5031090;28;20057;-66
2023/05/31 00:07:35;;;;;;;2.42;1.20;;;15.50;69.50;;;;;;5033120;28;20417;-66
2023/05/31 00:10:01;;;;;;;0.98;0.93;;;15.40;69.80;;;;;;5026789;28;20041;-66
2023/05/31 00:12:26;;;;;;;1.23;0.85;;;15.40;69.80;;;;;;5031363;28;20029;-63
2023/05/31 00:14:52;;;;;;;1.38;0.70;;;15.40;69.90;;;;;;5035448;28;20021;-63
2023/05/31 00:17:18;;;;;;;1.23;0.60;;;15.30;69.90;;;;;;5033258;28;20037;-64
2023/05/31 00:19:43;;;;;;;2.28;1.00;;;15.30;70.00;;;;;;5032607;28;20140;-63
2023/05/31 00:22:10;;;;;;;2.30;1.15;;;15.30;70.20;;;;;;5033185;28;20042;-63
2023/05/31 00:24:36;;;;;;;1.92;1.00;;;15.30;70.40;;;;;;5031399;28;20018;-66
2023/05/31 00:27:01;;;;;;;0.82;0.60;;;15.30;70.50;;;;;;5031269;28;20377;-67
2023/05/31 00:29:28;;;;;;;1.10;0.82;;;15.20;70.40;;;;;;5033413;28;20163;-66
2023/05/31 00:31:54;;;;;;;0.90;0.70;;;15.20;70.50;;;;;;5032010;28;20069;-66
2023/05/31 00:34:20;;;;;;;1.35;0.80;;;15.20;70.40;;;;;;5032384;28;20060;-66
2023/05/31 00:36:45;;;;;;;2.15;0.57;;;15.20;70.60;;;;;;5033439;28;20060;-66
2023/05/31 00:39:11;;;;;;;1.42;1.00;;;15.20;70.50;;;;;;5033011;28;20036;-67
2023/05/31 00:41:36;;;;;;;1.10;0.63;;;15.20;70.60;;;;;;5035875;28;20046;-66
2023/05/31 00:44:02;;;;;;;1.23;0.85;;;15.10;70.80;;;;;;5016812;28;20029;-67
2023/05/31 00:46:33;;;;;;;1.33;0.90;;;15.10;70.80;;;;;;5030748;28;20104;-67
2023/05/31 00:49:00;;;;;;;1.00;0.88;;;15.10;70.90;;;;;;5031879;28;20426;-66
2023/05/31 00:51:29;;;;;;;1.23;0.90;;;15.10;71.00;;;;;;5031193;28;20025;-67
2023/05/31 00:53:56;;;;;;;0.68;0.60;;;15.00;70.90;;;;;;5027640;28;20108;-66
2023/05/31 00:56:22;;;;;;;4.05;0.85;;;15.00;71.10;;;;;;5031466;28;20489;-66
2023/05/31 00:58:49;;;;;;;2.10;1.00;;;15.00;71.00;;;;;;5031391;28;20039;-66
2023/05/31 01:01:15;;;;;;;1.35;0.85;;;15.00;71.10;;;;;;5037989;28;20357;-67
2023/05/31 01:03:41;;;;;;;1.70;1.40;;;15.00;71.20;;;;;;5039343;28;20028;-67
2023/05/31 01:06:08;;;;;;;1.73;0.85;;;14.90;71.20;;;;;;5039433;28;20826;-66
2023/05/31 01:08:35;;;;;;;1.35;1.08;;;14.90;71.20;;;;;;5034169;28;20120;-67
2023/05/31 01:11:17;;;;;;;2.83;1.08;;;14.90;71.40;;;;;;5036409;28;20100;-67
2023/05/31 01:14:06;;;;;;;;;;;14.90;71.50;;;;;;5042234;28;20394;-67
2023/05/31 01:16:38;;;;;;;1.52;0.82;;;14.70;71.80;;;;;;5007598;28;19916;-63
2023/05/31 01:19:07;;;;;;;2.17;1.50;;;14.70;72.00;;;;;;5045942;28;20060;-66
2023/05/31 01:21:57;;;;;;;2.85;0.80;;;14.70;72.10;;;;;;5033527;28;20731;-63
2023/05/31 01:24:23;;;;;;;0.80;0.68;;;14.70;71.90;;;;;;5030712;28;20433;-66
2023/05/31 01:26:58;;;;;;;1.15;0.90;;;14.70;71.90;;;;;;5031182;28;20163;-63
2023/05/31 01:29:26;;;;;;;1.15;0.88;;;14.70;72.10;;;;;;5028052;28;20052;-64
2023/05/31 01:31:53;;;;;;;2.42;1.38;;;14.70;72.20;;;;;;5035735;28;20083;-67
2023/05/31 01:34:18;;;;;;;1.63;0.98;;;14.70;72.20;;;;;;5029055;28;20108;-67
2023/05/31 01:36:44;;;;;;;2.20;1.48;;;14.70;72.20;;;;;;5029115;28;20492;-63
2023/05/31 01:39:11;;;;;;;2.00;1.20;;;14.70;72.30;;;;;;5029078;28;20037;-63
2023/05/31 01:41:39;;;;;;;1.95;0.73;;;14.70;72.40;;;;;;5033533;28;20030;-64
2023/05/31 01:44:06;;;;;;;3.13;1.20;;;14.70;72.40;;;;;;5033438;28;20072;-63
2023/05/31 01:46:32;;;;;;;1.52;0.80;;;14.70;72.30;;;;;;5033260;28;20024;-63
2023/05/31 01:48:59;;;;;;;2.03;1.45;;;14.70;72.30;;;;;;5029519;28;20393;-63
2023/05/31 01:51:26;;;;;;;1.90;1.45;;;14.70;72.50;;;;;;5030325;28;20423;-63
2023/05/31 01:53:52;;;;;;;1.58;1.45;;;14.60;72.40;;;;;;5031361;28;20033;-63
2023/05/31 01:56:20;;;;;;;2.08;1.30;;;14.60;72.50;;;;;;5030059;28;20033;-63
2023/05/31 01:58:49;;;;;;;1.48;0.90;;;14.60;72.50;;;;;;5029757;28;20369;-63
2023/05/31 02:01:17;;;;;;;4.25;1.13;;;14.60;72.70;;;;;;5031023;28;20029;-67
2023/05/31 02:03:43;;;;;;;2.35;0.90;;;14.60;72.80;;;;;;5035755;28;20165;-64
2023/05/31 02:06:12;;;;;;;2.30;1.30;;;14.50;72.90;;;;;;5033219;28;20033;-63
2023/05/31 02:08:38;;;;;;;5.60;1.30;;;14.50;72.90;;;;;;5067816;28;20025;-63
2023/05/31 02:11:04;;;;;;;3.70;1.42;;;14.50;73.00;;;;;;5034079;28;20025;-63
2023/05/31 02:13:30;;;;;;;2.20;1.25;;;14.40;73.00;;;;;;5037079;28;20388;-63
2023/05/31 02:15:57;;;;;;;1.35;1.10;;;14.40;73.00;;;;;;5029738;28;20132;-64
2023/05/31 02:18:26;;;;;;;2.42;1.17;;;14.40;73.10;;;;;;5035735;28;20028;-63
2023/05/31 02:20:52;;;;;;;1.92;1.20;;;14.40;73.10;;;;;;5029598;28;20064;-66
2023/05/31 02:23:18;;;;;;;3.60;1.20;;;14.40;73.20;;;;;;5031242;28;20147;-67
2023/05/31 02:25:48;;;;;;;3.10;1.40;;;14.40;73.10;;;;;;5016185;28;20120;-66
2023/05/31 02:28:14;;;;;;;1.85;1.33;;;14.40;73.00;;;;;;5034301;28;20060;-66
2023/05/31 02:30:40;;;;;;;1.98;1.27;;;14.40;73.10;;;;;;5029531;28;20532;-65
2023/05/31 02:33:07;;;;;;;1.98;1.55;;;14.40;73.10;;;;;;5029875;28;20088;-65
2023/05/31 02:35:33;;;;;;;3.05;1.40;;;14.30;73.10;;;;;;5023485;28;20093;-65
2023/05/31 02:37:58;;;;;;;2.28;1.50;;;14.30;73.40;;;;;;5036541;28;20028;-65
2023/05/31 02:40:24;;;;;;;4.35;1.77;;;14.30;73.50;;;;;;5036672;28;20087;-65
2023/05/31 02:42:50;;;;;;;3.55;1.33;;;14.30;73.60;;;;;;5027801;28;20039;-67
2023/05/31 02:45:16;;;;;;;3.30;1.00;;;14.20;73.50;;;;;;5028202;28;20036;-66
2023/05/31 02:47:41;;;;;;;2.40;1.35;;;14.30;73.60;;;;;;5030278;28;20403;-67
2023/05/31 02:50:09;;;;;;;2.60;1.45;;;14.30;73.50;;;;;;5030652;28;20044;-67
2023/05/31 02:52:35;;;;;;;1.40;1.17;;;14.30;73.60;;;;;;5028920;28;20104;-66
2023/05/31 02:55:01;;;;;;;2.70;1.98;;;14.30;73.60;;;;;;5030238;28;20041;-67
2023/05/31 02:57:27;;;;;;;2.88;1.65;;;14.20;73.60;;;;;;5027830;28;20388;-66
2023/05/31 02:59:57;;;;;;;2.45;1.70;;;14.20;73.70;;;;;;5037941;28;20041;-67
2023/05/31 03:02:22;;;;;;;2.75;1.80;;;14.20;73.70;;;;;;5036376;28;20044;-63
2023/05/31 03:04:48;;;;;;;2.63;1.25;;;14.20;74.00;;;;;;5036608;28;20487;-63
2023/05/31 03:07:14;;;;;;;2.95;1.50;;;14.20;74.00;;;;;;5035546;28;20033;-63
2023/05/31 03:09:40;;;;;;;1.90;1.35;;;14.20;74.10;;;;;;5035877;28;20112;-66
2023/05/31 03:12:06;;;;;;;2.90;1.52;;;14.20;74.00;;;;;;5027655;28;20140;-67
2023/05/31 03:14:32;;;;;;;3.40;1.42;;;14.20;74.10;;;;;;5030074;28;20029;-67
2023/05/31 03:16:58;;;;;;;2.10;1.80;;;14.20;74.00;;;;;;5035510;28;20025;-66
2023/05/31 03:19:23;;;;;;;2.92;1.98;;;14.20;74.00;;;;;;5030924;28;20444;-67
2023/05/31 03:21:49;;;;;;;2.53;1.40;;;14.20;74.10;;;;;;5028036;28;20033;-66
2023/05/31 03:24:15;;;;;;;2.70;1.55;;;14.20;74.00;;;;;;5028038;28;20056;-67
2023/05/31 03:26:41;;;;;;;4.40;2.35;;;14.20;74.00;;;;;;5028604;28;20053;-67
2023/05/31 03:29:06;;;;;;;6.40;2.65;;;14.10;74.00;;;;;;5025657;28;20060;-67
2023/05/31 03:31:32;;;;;;;5.00;2.05;;;14.10;74.20;;;;;;5023627;28;20428;-67
2023/05/31 03:33:58;;;;;;;4.68;2.05;;;14.10;74.30;;;;;;5030942;28;20030;-63
2023/05/31 03:36:24;;;;;;;3.03;1.67;;;14.10;74.50;;;;;;5028058;28;20056;-63
2023/05/31 03:38:50;;;;;;;1.88;1.38;;;14.10;74.50;;;;;;5030055;28;20037;-63
2023/05/31 03:41:16;;;;;;;3.60;2.00;;;14.10;74.50;;;;;;5032792;28;20013;-63
2023/05/31 03:43:42;;;;;;;2.70;1.52;;;14.10;74.50;;;;;;5028672;28;20030;-63
2023/05/31 03:46:08;;;;;;;2.85;2.33;;;14.10;74.40;;;;;;5036786;28;20498;-63
2023/05/31 03:48:33;;;;;;;4.13;2.25;;;14.20;74.50;;;;;;5026828;28;20025;-63
2023/05/31 03:50:59;;;;;;;2.47;1.50;;;14.20;74.60;;;;;;5039227;28;20033;-63
2023/05/31 03:53:25;;;;;;;3.50;2.17;;;14.20;74.60;;;;;;5035669;28;20076;-63
2023/05/31 03:55:51;;;;;;;2.92;1.88;;;14.20;74.70;;;;;;5039115;28;20032;-63
2023/05/31 03:58:17;;;;;;;3.38;1.73;;;14.20;74.70;;;;;;5034666;28;20026;-63
2023/05/31 04:00:43;;;;;;;3.30;2.20;;;14.20;74.70;;;;;;5033221;28;20024;-63
2023/05/31 04:03:11;;;;;;;2.40;1.85;;;14.20;74.50;;;;;;5029551;28;20028;-63
2023/05/31 04:05:38;;;;;;;3.88;2.13;;;14.20;74.60;;;;;;5036007;28;20038;-63
2023/05/31 04:08:04;;;;;;;2.22;1.45;;;14.20;74.50;;;;;;5028328;28;20056;-63
2023/05/31 04:10:30;;;;;;;5.63;2.42;;;14.20;74.50;;;;;;5030863;28;20116;-63
2023/05/31 04:12:56;;;;;;;4.68;2.35;;;14.20;74.50;;;;;;5028687;28;20037;-63
2023/05/31 04:15:22;;;;;;;2.92;1.95;;;14.20;74.50;;;;;;5039358;28;20117;-66
2023/05/31 04:17:47;;;;;;;2.67;1.70;;;14.20;74.50;;;;;;5029410;28;20037;-67
2023/05/31 04:20:13;;;;;;;3.33;1.70;;;14.20;74.60;;;;;;5035200;28;20443;-67
2023/05/31 04:22:39;;;;;;;2.70;1.77;;;14.20;74.50;;;;;;5027700;28;20021;-66
2023/05/31 04:25:05;;;;;;;3.92;2.30;;;14.30;74.50;;;;;;5029059;28;20040;-63
2023/05/31 04:27:32;;;;;;;3.38;2.15;;;14.30;74.40;;;;;;5025755;28;20028;-63
2023/05/31 04:29:58;;;;;;;3.72;2.25;;;14.30;74.40;;;;;;5028766;28;20033;-63
2023/05/31 04:32:24;;;;;;;3.22;1.88;;;14.30;74.50;;;;;;5026002;28;20036;-68
2023/05/31 04:34:57;;;;;;;4.28;2.38;;;14.30;74.60;;;;;;5025016;28;20033;-67
2023/05/31 04:37:28;;;;;;;3.35;2.22;;;14.30;74.70;;;;;;5020459;28;20080;-67
2023/05/31 04:39:54;;;;;;;4.65;2.15;;;14.30;74.70;;;;;;5021636;28;20032;-63
2023/05/31 04:42:20;;;;;;;3.75;1.77;;;14.30;74.70;;;;;;5027142;28;20032;-63
2023/05/31 04:44:46;;;;;;;5.40;2.30;;;14.40;74.60;;;;;;5031017;28;20038;-63
2023/05/31 04:47:12;;;;;;;5.05;2.78;;;14.40;74.60;;;;;;5004838;28;20507;-63
2023/05/31 04:49:37;;;;;;;5.13;2.60;;;14.40;74.80;;;;;;5031326;28;20488;-63
2023/05/31 04:52:03;;;;;;;4.95;2.60;;;14.40;74.70;;;;;;5030880;28;20091;-63
2023/05/31 04:54:29;;;;;;;4.45;2.38;;;14.40;74.90;;;;;;5031575;28;20022;-63
2023/05/31 04:56:55;;;;;;;4.22;2.45;;;14.40;74.90;;;;;;5025245;28;20144;-63
2023/05/31 04:59:20;;;;;;;4.70;2.97;;;14.40;74.80;;;;;;5032665;28;20445;-63
2023/05/31 05:01:48;;;;;;;4.07;2.50;;;14.40;74.90;;;;;;5033048;28;20037;-64
2023/05/31 05:04:13;;;;;;;5.53;2.50;;;14.40;74.90;;;;;;5026565;28;20034;-65
2023/05/31 05:06:41;;;;;;;3.60;2.30;;;14.40;74.80;;;;;;5006348;28;20083;-65
2023/05/31 05:09:09;;;;;;;3.85;2.63;;;14.40;74.80;;;;;;5023813;28;20092;-65
2023/05/31 05:11:34;;;;;;;4.10;2.15;;;14.50;74.80;;;;;;5029987;28;20031;-65
2023/05/31 05:14:00;;;;;;;4.05;2.20;;;14.50;74.70;;;;;;5030698;28;20022;-65
2023/05/31 05:16:26;;;;;;;5.38;2.63;;;14.60;74.60;;;;;;5019157;28;20034;-65
2023/05/31 05:18:51;;;;;;;4.28;2.58;;;14.60;74.50;;;;;;5030676;28;20041;-65
2023/05/31 05:21:17;;;;;;;3.03;2.13;;;14.70;74.60;;;;;;5034578;28;20108;-65
2023/05/31 05:23:43;;;;;;;3.40;1.90;;;14.70;74.50;;;;;;5036337;28;20029;-64
2023/05/31 05:26:08;;;;;;;4.57;2.35;;;14.70;74.40;;;;;;5030880;28;20112;-65
2023/05/31 05:28:34;;;;;;;4.45;2.88;;;14.80;74.40;;;;;;5028797;28;20050;-65
2023/05/31 05:31:00;;;;;;;10.05;3.78;;;14.80;74.40;;;;;;5026657;28;20054;-65
2023/05/31 05:33:28;;;;;;;7.07;2.70;;;14.90;74.60;;;;;;5029529;28;20489;-64
2023/05/31 05:35:53;;;;;;;3.33;1.85;;;14.90;74.50;;;;;;5030007;28;20034;-65
2023/05/31 05:38:20;;;;;;;3.75;1.92;;;14.90;74.20;;;;;;5028843;28;20034;-65
2023/05/31 05:40:46;;;;;;;3.83;2.35;;;15.00;74.20;;;;;;5032324;28;20429;-65
2023/05/31 05:43:12;;;;;;;4.80;1.98;;;15.00;74.20;;;;;;5030097;28;20063;-64
2023/05/31 05:45:38;;;;;;;4.18;2.33;;;15.10;74.20;;;;;;5031943;28;20056;-65
2023/05/31 05:48:03;;;;;;;4.13;1.98;;;15.20;74.10;;;;;;5026472;28;20095;-65
2023/05/31 05:50:29;;;;;;;3.85;2.10;;;15.30;73.90;;;;;;5037571;28;20021;-68
2023/05/31 05:52:55;;;;;;;3.05;1.83;;;15.30;73.80;;;;;;5036843;28;20069;-69
2023/05/31 05:55:20;;;;;;;3.17;2.28;;;15.40;73.60;;;;;;5036850;28;20393;-69
2023/05/31 05:57:46;;;;;;;4.78;2.10;;;15.50;73.40;;;;;;5031645;28;20064;-69
2023/05/31 06:00:14;;;;;;;2.28;1.77;;;15.60;73.40;;;;;;5030206;28;20084;-69
2023/05/31 06:02:40;;;;;;;2.65;1.60;;;15.70;73.20;;;;;;5029751;28;20396;-69
2023/05/31 06:05:07;;;;;;;2.85;1.48;;;15.80;73.10;;;;;;5024470;28;20104;-68
2023/05/31 06:07:33;;;;;;;3.67;1.63;;;15.80;72.90;;;;;;5027553;28;20025;-68
2023/05/31 06:10:00;;;;;;;2.45;1.77;;;15.90;72.80;;;;;;5030688;28;20468;-68
2023/05/31 06:12:25;;;;;;;3.17;1.65;;;16.00;72.70;;;;;;5037097;28;20035;-69
2023/05/31 06:14:51;;;;;;;7.28;2.17;;;16.10;72.40;;;;;;5027634;28;20115;-68
2023/05/31 06:17:17;;;;;;;2.92;1.98;;;16.20;72.20;;;;;;5011441;28;20667;-66
2023/05/31 06:19:42;;;;;;;4.50;1.75;;;16.30;72.00;;;;;;5029145;28;20033;-69
2023/05/31 06:22:08;;;;;;;1.48;1.00;;;16.40;71.90;;;;;;5025139;28;20037;-69
2023/05/31 06:24:34;;;;;;;2.75;1.27;;;16.40;71.60;;;;;;5029331;28;20026;-69
2023/05/31 06:27:02;;;;;;;2.03;1.38;;;16.60;72.00;;;;;;5027219;28;20041;-69
2023/05/31 06:29:27;;;;;;;1.95;0.90;;;16.70;71.20;;;;;;5024945;28;20567;-65
2023/05/31 06:31:53;;;;;;;1.70;1.20;;;16.80;70.90;;;;;;5033179;28;20029;-65
2023/05/31 06:34:19;;;;;;;2.38;1.35;;;16.80;70.70;;;;;;5027374;28;20021;-62
2023/05/31 06:36:45;;;;;;;0.70;0.70;;;16.90;70.50;;;;;;5026869;28;20029;-62
2023/05/31 06:39:10;;;;;;;1.25;1.00;;;17.00;70.30;;;;;;5025002;28;20052;-62
2023/05/31 06:41:37;;;;;;;1.55;0.98;;;17.20;70.20;;;;;;5026297;28;20040;-64
2023/05/31 06:44:02;;;;;;;3.10;1.05;;;17.20;69.90;;;;;;5025621;28;20465;-65
2023/05/31 06:46:28;;;;;;;1.65;1.23;;;17.30;69.70;;;;;;5030894;28;20076;-63
2023/05/31 06:48:54;;;;;;;3.72;1.30;;;17.40;69.60;;;;;;5032215;28;20026;-63
2023/05/31 06:51:22;;;;;;;1.70;1.13;;;17.40;69.30;;;;;;5019490;28;20026;-63
2023/05/31 06:53:49;;;;;;;1.50;0.90;;;17.60;69.20;;;;;;5020638;28;20597;-63
2023/05/31 06:56:15;;;;;;;1.90;1.20;;;17.70;68.90;;;;;;5023898;28;20022;-63
2023/05/31 06:58:42;;;;;;;5.57;1.33;;;17.80;68.70;;;;;;5029274;28;20022;-63
2023/05/31 07:01:07;;;;;;;1.75;1.15;;;17.90;68.30;;;;;;5031693;28;20082;-63
2023/05/31 07:03:33;;;;;;;8.45;1.48;;;18.00;68.10;;;;;;5031098;28;20113;-64
2023/05/31 07:05:59;;;;;;;6.80;0.90;;;18.00;68.00;;;;;;5030759;28;20037;-63
2023/05/31 07:08:24;;;;;;;1.98;1.30;;;18.10;67.70;;;;;;5026412;28;20132;-63
2023/05/31 07:10:50;;;;;;;1.35;1.00;;;18.20;67.70;;;;;;5023913;28;20044;-63
2023/05/31 07:13:16;;;;;;;1.58;0.90;;;18.20;67.50;;;;;;5024616;28;20046;-68
2023/05/31 07:15:41;;;;;;;1.20;0.82;;;18.40;67.40;;;;;;5029341;28;20037;-68
2023/05/31 07:18:07;;;;;;;1.88;0.93;;;18.40;67.10;;;;;;5025900;28;20544;-65
2023/05/31 07:20:33;;;;;;;1.77;0.90;;;18.60;66.90;;;;;;5020600;28;20022;-64
2023/05/31 07:22:58;;;;;;;4.93;1.38;;;18.60;66.60;;;;;;5022905;28;20038;-63
2023/05/31 07:25:24;;;;;;;0.88;0.57;;;18.70;66.50;;;;;;5017219;28;20049;-63
2023/05/31 07:27:50;;;;;;;3.58;1.65;;;18.80;66.40;;;;;;5026244;28;20133;-63
2023/05/31 07:30:16;;;;;;;2.03;1.00;;;18.90;66.30;;;;;;5019986;28;20617;-63
2023/05/31 07:32:41;;;;;;;2.63;0.82;;;18.90;66.00;;;;;;5021424;28;20037;-61
2023/05/31 07:35:08;;;;;;;1.33;0.75;;;19.00;65.90;;;;;;5023048;28;20037;-66
2023/05/31 07:37:34;;;;;;;1.60;1.00;;;19.20;65.90;;;;;;5010216;28;20033;-62
2023/05/31 07:39:59;;;;;;;1.00;0.93;;;19.20;65.60;;;;;;5029603;28;20486;-66
2023/05/31 07:42:25;;;;;;;2.67;1.13;;;19.30;65.40;;;;;;5025975;28;20065;-63
2023/05/31 07:44:51;;;;;;;1.25;1.00;;;19.40;65.40;;;;;;5029840;28;20036;-66
2023/05/31 07:47:17;;;;;;;2.50;1.35;;;19.40;65.20;;;;;;5027072;28;20099;-64
2023/05/31 07:49:43;;;;;;;1.10;0.75;;;19.50;65.00;;;;;;5028926;28;20036;-64
2023/05/31 07:52:08;;;;;;;2.72;1.52;;;19.60;65.00;;;;;;5028612;28;20021;-64
2023/05/31 07:54:34;;;;;;;2.28;1.00;;;19.70;64.70;;;;;;5028985;28;20026;-64
2023/05/31 07:57:00;;;;;;;1.38;0.93;;;19.70;64.50;;;;;;5025109;28;20025;-63
2023/05/31 07:59:26;;;;;;;3.53;1.85;;;19.80;64.40;;;;;;5029068;28;20366;-65
2023/05/31 08:01:52;;;;;;;1.80;0.80;;;19.90;64.30;;;;;;5040643;28;20056;-68
2023/05/31 08:04:18;;;;;;;3.35;1.30;;;20.00;64.20;;;;;;5027869;28;20484;-64
2023/05/31 08:06:43;;;;;;;2.05;1.15;;;20.10;64.10;;;;;;5027569;28;20559;-64
2023/05/31 08:09:09;;;;;;;1.67;1.10;;;20.20;63.90;;;;;;5042429;28;20089;-65
2023/05/31 08:11:36;;;;;;;2.90;1.52;;;20.30;63.70;;;;;;5030662;28;20488;-65
2023/05/31 08:14:05;;;;;;;3.65;1.63;;;20.40;63.40;;;;;;5026379;28;20056;-68
2023/05/31 08:16:32;;;;;;;2.33;1.17;;;20.50;63.40;;;;;;5028483;28;20026;-68
2023/05/31 08:18:58;;;;;;;1.35;1.00;;;20.50;63.30;;;;;;5032778;28;20022;-68
2023/05/31 08:21:24;;;;;;;1.27;1.02;;;20.60;63.10;;;;;;5029450;28;20484;-69
2023/05/31 08:23:50;;;;;;;2.17;0.82;;;20.80;63.00;;;;;;5031794;28;20068;-69
2023/05/31 08:26:16;;;;;;;2.03;1.00;;;20.90;62.60;;;;;;5031101;28;20511;-69
2023/05/31 08:28:41;;;;;;;2.30;1.10;;;20.90;62.40;;;;;;5026937;28;20069;-65
2023/05/31 08:31:07;;;;;;;2.53;1.17;;;21.00;62.10;;;;;;5029720;28;20447;-66
2023/05/31 08:33:33;;;;;;;1.38;0.80;;;21.10;62.30;;;;;;5029158;28;20032;-65
2023/05/31 08:35:59;;;;;;;1.60;1.05;;;21.10;61.90;;;;;;5025825;28;20022;-66
2023/05/31 08:38:28;;;;;;;2.00;0.80;;;21.20;61.70;;;;;;5029736;28;20028;-65
2023/05/31 08:41:02;;;;;;;1.00;0.82;;;21.30;61.70;;;;;;5034874;28;20037;-65
2023/05/31 08:43:28;;;;;;;1.63;1.27;;;21.40;61.50;;;;;;5030833;28;20064;-69
2023/05/31 08:45:55;;;;;;;2.67;1.42;;;21.50;61.00;;;;;;5029170;28;20488;-69
2023/05/31 08:48:28;;;;;;;3.58;1.40;;;21.50;59.90;;;;;;5031738;28;20103;-69
2023/05/31 08:50:56;;;;;;;2.60;1.05;;;21.50;60.30;;;;;;5034073;28;20052;-69
2023/05/31 08:53:25;;;;;;;2.35;1.20;;;21.60;60.40;;;;;;5036880;28;20096;-69
2023/05/31 08:55:52;;;;;;;1.85;0.90;;;21.70;60.40;;;;;;5026793;28;20129;-69
2023/05/31 08:58:18;;;;;;;2.05;0.90;;;21.80;60.10;;;;;;5036462;28;20026;-69
2023/05/31 09:00:45;;;;;;;1.17;0.73;;;22.00;60.60;;;;;;5036843;28;20041;-68
2023/05/31 09:03:11;;;;;;;2.72;1.10;;;22.10;59.70;;;;;;5036569;28;20373;-68
2023/05/31 09:05:37;;;;;;;1.40;0.88;;;22.20;59.50;;;;;;5038955;28;20068;-68
2023/05/31 09:08:03;;;;;;;1.05;0.82;;;22.30;59.90;;;;;;5034206;28;20018;-69
2023/05/31 09:10:29;;;;;;;3.65;1.27;;;22.40;59.20;;;;;;5037734;28;20055;-68
2023/05/31 09:12:55;;;;;;;2.10;0.85;;;22.50;58.60;;;;;;5032005;28;20026;-68
2023/05/31 09:15:24;;;;;;;2.40;1.00;;;22.50;58.50;;;;;;5035345;28;20029;-68
2023/05/31 09:17:50;;;;;;;1.95;1.17;;;22.60;58.50;;;;;;5031839;28;20029;-68
2023/05/31 09:20:17;;;;;;;0.93;0.82;;;22.70;58.30;;;;;;5033793;28;20382;-68
2023/05/31 09:22:49;;;;;;;1.35;0.65;;;22.80;57.80;;;;;;5032483;28;20496;-68
2023/05/31 09:25:15;;;;;;;1.42;0.90;;;22.90;57.70;;;;;;5033429;28;20092;-68
2023/05/31 09:27:41;;;;;;;1.65;1.00;;;23.10;57.50;;;;;;5031282;28;20038;-69
2023/05/31 09:30:09;;;;;;;1.70;0.98;;;23.10;57.40;;;;;;5031357;28;20071;-69
2023/05/31 09:32:36;;;;;;;2.25;1.40;;;23.20;57.20;;;;;;5015573;28;20494;-69
2023/05/31 09:35:11;;;;;;;1.25;1.10;;;23.40;56.80;;;;;;5031546;28;20849;-69
2023/05/31 09:37:45;;;;;;;0.52;0.52;;;23.50;56.70;;;;;;5023902;28;20025;-69
2023/05/31 09:40:21;;;;;;;1.00;0.90;;;23.60;56.50;;;;;;5027318;28;20021;-69
2023/05/31 09:42:51;;;;;;;1.00;0.80;;;23.80;56.20;;;;;;5030245;28;20044;-69
2023/05/31 09:45:17;;;;;;;1.40;0.75;;;23.90;55.60;;;;;;5023398;28;20519;-69
2023/05/31 09:47:43;;;;;;;2.97;0.77;;;24.00;55.10;;;;;;5026019;28;20029;-69
2023/05/31 09:50:10;;;;;;;4.20;1.42;;;24.10;54.90;;;;;;5029644;28;20044;-69
2023/05/31 09:52:40;;;;;;;0.93;0.70;;;24.10;54.50;;;;;;5029535;28;20084;-69
2023/05/31 09:55:07;;;;;;;2.60;0.60;;;24.30;54.50;;;;;;5029129;28;20033;-69
2023/05/31 09:57:44;;;;;;;1.90;0.80;;;24.30;54.40;;;;;;5033070;28;20035;-71
2023/05/31 10:00:18;;;;;;;1.15;0.63;;;24.50;54.30;;;;;;5037946;28;20025;-70
2023/05/31 10:02:46;;;;;;;0.95;0.60;;;24.60;53.80;;;;;;5019529;28;20044;-71
2023/05/31 10:05:13;;;;;;;1.17;0.68;;;24.70;53.60;;;;;;5039084;28;20108;-71
2023/05/31 10:07:43;;;;;;;1.60;0.73;;;24.80;53.50;;;;;;5038436;28;20086;-71
2023/05/31 10:10:10;;;;;;;0.68;0.50;;;24.90;53.30;;;;;;5041902;28;20104;-71
2023/05/31 10:12:50;;;;;;;1.17;0.68;;;24.90;53.20;;;;;;5042311;28;20025;-68
2023/05/31 10:15:19;;;;;;;2.08;0.98;;;25.10;53.10;;;;;;5038953;28;20051;-69
2023/05/31 10:17:55;;;;;;;0.68;0.63;;;25.20;52.90;;;;;;5039374;28;20594;-69
2023/05/31 10:20:24;;;;;;;2.13;0.77;;;25.40;52.70;;;;;;5032599;28;20021;-70
2023/05/31 10:22:54;;;;;;;0.65;0.60;;;25.50;52.40;;;;;;5016203;28;20037;-68
2023/05/31 10:25:48;;;;;;;1.13;0.70;;;25.50;52.00;;;;;;5025972;28;20030;-70
2023/05/31 10:28:16;;;;;;;0.90;0.73;;;25.50;51.90;;;;;;5025556;28;20539;-68
2023/05/31 10:30:45;;;;;;;2.85;0.82;;;25.60;51.80;;;;;;5027719;28;20452;-64
2023/05/31 10:33:15;;;;;;;2.97;1.30;;;25.70;52.00;;;;;;5061055;28;20018;-65
2023/05/31 10:35:41;;;;;;;0.98;0.95;;;25.80;51.70;;;;;;5022248;28;20037;-65
2023/05/31 10:38:07;;;;;;;0.65;0.50;;;25.90;51.00;;;;;;5023444;28;20025;-65
2023/05/31 10:40:49;;;;;;;2.90;1.23;;;25.90;50.70;;;;;;5024048;28;20029;-65
2023/05/31 10:43:45;;;;;;;1.95;1.05;;;26.00;50.30;;;;;;5017246;28;20026;-65
2023/05/31 10:46:19;;;;;;;0.68;0.60;;;25.90;50.40;;;;;;5030568;28;20128;-68
2023/05/31 10:48:50;;;;;;;1.52;1.27;;;25.90;50.00;;;;;;5023347;28;20072;-68
2023/05/31 10:51:16;;;;;;;1.38;0.60;;;26.00;50.00;;;;;;5024207;28;20034;-68
2023/05/31 10:53:46;;;;;;;2.95;1.50;;;26.10;50.10;;;;;;5017270;28;20025;-68
2023/05/31 10:56:13;;;;;;;3.65;1.38;;;26.20;49.50;;;;;;5024204;28;20030;-68
2023/05/31 10:58:53;;;;;;;2.25;1.48;;;26.30;49.30;;;;;;5030692;28;20021;-66
2023/05/31 11:01:21;;;;;;;0.85;0.75;;;26.50;49.00;;;;;;5023676;28;20022;-65
2023/05/31 11:03:47;;;;;;;2.22;0.95;;;26.60;48.60;;;;;;5028181;28;20400;-65
2023/05/31 11:06:14;;;;;;;0.50;0.50;;;26.70;48.30;;;;;;5032617;28;20155;-65
2023/05/31 11:09:08;;;;;;;0.98;0.63;;;26.80;48.10;;;;;;5025971;28;20033;-65
2023/05/31 11:11:33;;;;;;;1.42;1.00;;;26.90;47.50;;;;;;5025258;28;20040;-65
2023/05/31 11:14:06;;;;;;;2.10;1.02;;;27.00;47.10;;;;;;5027039;28;20021;-64
2023/05/31 11:16:47;;;;;;;0.73;0.70;;;27.00;47.10;;;;;;5029097;28;20038;-68
2023/05/31 11:19:17;;;;;;;0.73;0.60;;;27.10;47.10;;;;;;5028520;28;20386;-68
2023/05/31 11:21:49;;;;;;;2.28;0.60;;;27.20;47.20;;;;;;5032066;28;20021;-68
2023/05/31 11:24:28;;;;;;;;;;;27.20;46.50;;;;;;5027605;28;20044;-68
2023/05/31 11:26:56;;;;;;;0.68;0.68;;;27.30;46.20;;;;;;5025041;28;19936;-69
2023/05/31 11:29:22;;;;;;;1.83;0.82;;;27.40;46.20;;;;;;5021083;28;20458;-68
2023/05/31 11:31:51;;;;;;;4.88;1.30;;;27.60;46.10;;;;;;5030261;28;20113;-69
2023/05/31 11:34:34;;;;;;;0.57;0.57;;;27.70;45.60;;;;;;5024993;28;20034;-69
2023/05/31 11:37:03;;;;;;;0.80;0.68;;;27.80;45.70;;;;;;5027309;28;20080;-69
2023/05/31 11:39:30;;;;;;;0.60;0.52;;;27.90;45.70;;;;;;5024485;28;20472;-69
2023/05/31 11:41:56;;;;;;;1.20;0.88;;;28.10;45.90;;;;;;5018926;28;20508;-69
2023/05/31 11:44:32;;;;;;;2.67;0.60;;;28.20;45.70;;;;;;5021043;28;20051;-69
2023/05/31 11:47:04;;;;;;;2.72;0.77;;;28.30;45.70;;;;;;5021432;28;20040;-66
2023/05/31 11:49:31;;;;;;;1.25;0.80;;;28.30;45.70;;;;;;5018725;28;20381;-69
2023/05/31 11:51:57;;;;;;;0.73;0.70;;;28.40;45.30;;;;;;5020037;28;20028;-69
2023/05/31 11:54:29;;;;;;;1.23;1.13;;;28.50;45.00;;;;;;5020501;28;20030;-68
2023/05/31 11:57:08;;;;;;;0.73;0.73;;;28.50;45.00;;;;;;5024183;28;20029;-68
2023/05/31 11:59:35;;;;;;;1.40;0.75;;;28.60;44.70;;;;;;5026031;28;20030;-68
2023/05/31 12:02:03;;;;;;;1.27;0.95;;;28.70;44.60;;;;;;5031788;28;20546;-68
2023/05/31 12:04:33;;;;;;;1.15;0.98;;;28.80;44.50;;;;;;5029135;28;20025;-68
2023/05/31 12:06:59;;;;;;;0.73;0.73;;;28.90;44.50;;;;;;5044878;28;20083;-68
2023/05/31 12:09:27;;;;;;;3.25;0.85;;;29.00;44.20;;;;;;5021883;28;20449;-68
2023/05/31 12:11:54;;;;;;;1.52;0.80;;;29.00;44.20;;;;;;5030881;28;20033;-68
2023/05/31 12:14:20;;;;;;;3.28;0.88;;;29.00;44.30;;;;;;5037009;28;20056;-68
2023/05/31 12:16:50;;;;;;;1.80;0.95;;;29.10;44.20;;;;;;5038960;28;20069;-67
2023/05/31 12:19:16;;;;;;;1.00;0.73;;;29.10;43.40;;;;;;5031450;28;20021;-68
2023/05/31 12:21:42;;;;;;;1.55;0.90;;;29.10;43.70;;;;;;5030745;28;20040;-68
2023/05/31 12:24:12;;;;;;;1.90;0.95;;;29.20;43.90;;;;;;5037762;28;20485;-68
2023/05/31 12:26:38;;;;;;;3.40;0.60;;;29.30;43.70;;;;;;5034461;28;20101;-68
2023/05/31 12:29:04;;;;;;;0.68;0.63;;;29.30;43.60;;;;;;5039400;28;20149;-68
2023/05/31 12:31:32;;;;;;;0.77;0.77;;;29.30;43.70;;;;;;5045976;28;20028;-68
2023/05/31 12:34:09;;;;;;;2.00;0.80;;;29.50;43.40;;;;;;5032012;28;20048;-68
2023/05/31 12:36:42;;;;;;;1.77;0.80;;;29.60;42.70;;;;;;5023764;28;20049;-68
2023/05/31 12:39:16;;;;;;;0.98;0.82;;;29.60;42.90;;;;;;5027152;28;20044;-65
2023/05/31 12:41:43;;;;;;;0.70;0.70;;;29.70;42.80;;;;;;5030624;28;20465;-65
2023/05/31 12:44:09;;;;;;;0.93;0.65;;;29.70;42.90;;;;;;5035516;28;20352;-68
2023/05/31 12:46:43;;;;;;;0.80;0.80;;;29.80;42.80;;;;;;5035903;28;20084;-68
2023/05/31 12:49:23;;;;;;;2.42;0.60;;;29.90;42.70;;;;;;5036427;28;20170;-68